Newburgh, Maine
Current Conditions -  °F | °C
As of 10:53 PM on Tuesday 27 Jan 2015 (Local Time) from KBGR Reporting Station
Light Snow Light Snow  
Wind Chill: -11°   Ceiling: 1500
Heat Index: 10°   Visibility: 0.75mi
Dew Point:   Wind: 25mph
Humidity: 84%   Direction: 10°N
Pressure: 29.61"   Gusts: 35mph
Location:  44.7323°N, 68.9137°W
Report Text: KBGR 280353Z 01022G30KT 3/4SM R15/P6000FT -SN BLSN BR VV015 M12/M14 A2961 RMK AO2 PK WND 02030/0326 SFC VIS 1 SNE35B40 SLP031 P0000 T11221144
Loading
Personal Weather Stations






























Interactive Weather Map New forecast layout! Learn more

10-Day Weather Forecast

Advertisements
Track Severe Weather on mobile